Time;durP1;ratioP1;P1;durP2;ratioP2;P2;SDS_P1;SDS_P2;PMS_P1;PMS_P2;Temp;Humidity;BMP_temperature;BMP_pressure;BME280_temperature;BME280_humidity;BME280_pressure;Samples;Min_cycle;Max_cycle;Signal;HPM_P1;HPM_P2
2022/07/12 00:20:41;;;;;;;;;;;;;;;;;;;;;
2022/07/12 00:23:09;;;;;;;;;2.00;2.00;;;;;26.49;66.40;101742.59;6105210;23;75597;-96
2022/07/12 00:25:46;;;;;;;;;2.00;2.00;;;;;26.37;66.77;101713.03;6111281;23;44712;-96
2022/07/12 03:40:49;;;;;;;;;;;;;;;;;;;;;
2022/07/12 06:24:53;;;;;;;;;5.67;4.67;;;;;26.01;77.41;101455.91;6271566;22;1722395;-95
2022/07/12 06:27:20;;;;;;;;;4.67;4.67;;;;;26.09;77.37;101466.59;6346860;22;45245;-94
2022/07/12 06:29:47;;;;;;;;;5.00;5.00;;;;;26.16;77.46;101486.25;6314329;22;53260;-92
2022/07/12 06:32:17;;;;;;;;;3.00;3.00;;;;;26.16;77.42;101484.47;6317625;22;45474;-91
2022/07/12 06:34:43;;;;;;;;;4.00;4.00;;;;;26.13;77.21;101480.94;6292227;22;45272;-91
2022/07/12 06:37:08;;;;;;;;;7.00;6.00;;;;;26.16;77.06;101486.25;6317814;22;45507;-89
2022/07/12 06:39:35;;;;;;;;;6.00;6.00;;;;;26.10;77.13;101473.78;6347705;22;45957;-92
2022/07/12 06:42:03;;;;;;;;;4.00;4.00;;;;;26.09;77.10;101474.69;6300395;22;45316;-91
2022/07/12 06:44:32;;;;;;;;;5.00;5.00;;;;;26.19;77.22;101491.63;6350391;22;45275;-91
2022/07/12 06:46:58;;;;;;;;;4.00;4.00;;;;;26.14;77.13;101491.66;6318198;22;45373;-93
2022/07/12 06:49:24;;;;;;;;;5.00;4.33;;;;;26.26;76.81;101506.81;6293206;22;45618;-93
2022/07/12 06:51:50;;;;;;;;;7.67;5.67;;;;;26.31;77.09;101509.47;6319476;22;44735;-93
2022/07/12 06:54:15;;;;;;;;;4.00;4.00;;;;;26.29;76.58;101508.56;6318483;22;45525;-92
2022/07/12 06:56:41;;;;;;;;;5.67;5.67;;;;;26.39;76.99;101512.97;6344628;22;44822;-91
2022/07/12 06:59:10;;;;;;;;;5.00;5.00;;;;;26.44;76.63;101516.53;6319516;22;46918;-91
2022/07/12 07:01:39;;;;;;;;;5.00;5.00;;;;;26.51;76.86;101519.19;6348596;22;44638;-91
2022/07/12 07:04:05;;;;;;;;;7.00;7.00;;;;;26.62;76.96;101521.78;6322603;22;45281;-92
2022/07/12 07:06:31;;;;;;;;;7.33;6.33;;;;;26.64;76.86;101525.34;6349144;22;45389;-92
2022/07/12 07:08:57;;;;;;;;;5.67;5.67;;;;;26.76;76.47;101538.69;6323245;22;45600;-90
2022/07/12 07:11:22;;;;;;;;;4.67;4.67;;;;;26.84;76.44;101543.09;6323624;22;45482;-93
2022/07/12 07:13:47;;;;;;;;;5.00;5.00;;;;;26.93;76.35;101553.75;6351218;22;45313;-92
2022/07/12 07:16:13;;;;;;;;;6.00;6.00;;;;;26.96;76.06;101559.13;6324533;22;45653;-91
2022/07/12 07:18:39;;;;;;;;;5.33;5.33;;;;;27.11;75.98;101579.59;6328752;22;45949;-91
2022/07/12 07:21:05;;;;;;;;;6.00;5.33;;;;;27.15;75.90;101571.53;6302470;22;45238;-92
2022/07/12 07:23:31;;;;;;;;;8.00;6.33;;;;;27.17;75.47;101576.00;6347720;22;45217;-92
2022/07/12 07:25:56;;;;;;;;;6.67;6.00;;;;;27.29;75.48;101587.56;6321115;22;45785;-92
2022/07/12 07:28:21;;;;;;;;;5.67;5.67;;;;;27.34;75.72;101588.38;6318027;22;47016;-88
2022/07/12 07:30:53;;;;;;;;;6.67;6.67;;;;;27.33;75.47;101590.19;6316990;22;45332;-89
2022/07/12 07:33:22;;;;;;;;;4.00;4.00;;;;;27.50;75.35;101607.94;6342017;22;45369;-89
2022/07/12 07:35:49;;;;;;;;;7.00;6.00;;;;;27.63;74.98;101611.38;6316010;22;45560;-89
2022/07/12 07:38:17;;;;;;;;;3.33;3.33;;;;;27.77;75.25;101626.50;6314638;22;45296;-89
2022/07/12 07:40:43;;;;;;;;;7.00;4.00;;;;;27.83;74.76;101625.56;6315208;22;45416;-89
2022/07/12 07:43:08;;;;;;;;;6.00;6.00;;;;;27.85;74.71;101627.31;6318674;22;45355;-89
2022/07/12 07:45:35;;;;;;;;;5.33;5.33;;;;;27.95;74.61;101632.56;6314280;22;45253;-93
2022/07/12 07:48:01;;;;;;;;;8.33;6.33;;;;;28.02;74.47;101653.16;6322177;22;47153;-92
2022/07/12 07:50:27;;;;;;;;;6.67;6.67;;;;;28.14;74.11;101673.69;6322865;22;45250;-90
2022/07/12 07:52:52;;;;;;;;;8.67;6.33;;;;;28.17;73.93;101668.22;6346967;22;45702;-91
2022/07/12 07:55:18;;;;;;;;;6.67;5.67;;;;;28.27;74.49;101687.00;6319247;22;45498;-90
2022/07/12 07:57:43;;;;;;;;;9.00;7.67;;;;;28.32;74.04;101691.41;6321491;22;47523;-93
2022/07/12 08:00:10;;;;;;;;;6.00;6.00;;;;;28.39;73.49;101703.03;6319623;22;58825;-91
2022/07/12 08:02:36;;;;;;;;;8.00;7.00;;;;;28.47;73.71;101702.94;6294146;22;45434;-91
2022/07/12 08:05:02;;;;;;;;;5.00;5.00;;;;;28.58;73.76;101715.38;6291743;22;44891;-93
2022/07/12 08:07:28;;;;;;;;;7.00;7.00;;;;;28.63;73.29;101710.81;6348495;22;45601;-96
2022/07/12 08:09:53;;;;;;;;;6.00;6.00;;;;;28.72;73.18;101723.25;6349139;22;45271;-95
2022/07/12 08:12:19;;;;;;;;;8.33;7.33;;;;;28.84;73.21;101735.66;6348472;22;45332;-95
2022/07/12 08:14:44;;;;;;;;;5.00;5.00;;;;;28.92;73.19;101735.53;6345700;22;44777;-95
2022/07/12 08:17:10;;;;;;;;;8.67;7.00;;;;;29.02;72.84;101749.81;6347811;22;45270;-95
2022/07/12 08:19:35;;;;;;;;;8.00;7.67;;;;;29.10;72.40;101759.59;6297777;22;45253;-92
2022/07/12 08:22:01;;;;;;;;;7.67;7.33;;;;;29.19;72.32;101769.38;6326997;22;45166;-94
2022/07/12 08:24:26;;;;;;;;;6.67;6.67;;;;;29.25;71.95;101771.03;6323733;22;45227;-92
2022/07/12 08:26:51;;;;;;;;;0.00;0.00;;;;;29.35;71.74;101779.91;6317736;22;48115;-93
2022/07/12 08:29:17;;;;;;;;;7.33;5.00;;;;;29.43;71.63;101794.16;6319773;22;45554;-90
2022/07/12 08:31:42;;;;;;;;;9.00;7.33;;;;;29.54;71.73;101798.50;6290445;22;45340;-92
2022/07/12 08:34:07;;;;;;;;;7.00;6.00;;;;;29.58;71.04;101804.75;6317832;22;48556;-89
2022/07/12 08:36:35;;;;;;;;;6.00;6.00;;;;;29.67;70.98;101810.88;6313978;22;46848;-91
2022/07/12 08:39:00;;;;;;;;;7.67;6.00;;;;;29.73;70.82;101814.41;6293346;22;45659;-87
2022/07/12 08:41:26;;;;;;;;;6.00;5.67;;;;;29.76;70.79;101806.25;6317262;22;45552;-92
2022/07/12 08:43:51;;;;;;;;;5.67;5.67;;;;;29.89;71.24;101818.59;6317605;22;45490;-89
2022/07/12 08:46:16;;;;;;;;;4.00;4.00;;;;;29.94;71.20;101813.13;6317226;22;47933;-94
2022/07/12 08:48:43;;;;;;;;;4.00;4.00;;;;;30.06;71.13;101833.63;6320236;22;45820;-89
2022/07/12 08:51:12;;;;;;;;;5.33;5.33;;;;;30.17;71.07;101841.53;6340652;22;45395;-88
2022/07/12 08:53:38;;;;;;;;;5.00;4.33;;;;;30.22;71.13;101844.16;6314263;22;45238;-88
2022/07/12 08:56:05;;;;;;;;;5.00;4.00;;;;;30.34;70.01;101860.16;6286290;22;47917;-88
2022/07/12 08:58:31;;;;;;;;;5.67;5.67;;;;;30.48;70.07;101874.34;6346607;22;45304;-89
2022/07/12 09:00:56;;;;;;;;;5.00;5.00;;;;;30.53;69.96;101865.19;6349034;22;45334;-89
2022/07/12 09:03:22;;;;;;;;;3.67;3.67;;;;;30.62;69.11;101884.88;6313976;22;45481;-86
2022/07/12 09:05:53;;;;;;;;;3.67;3.67;;;;;30.77;68.38;101900.78;6318744;22;47125;-90
2022/07/12 09:08:25;;;;;;;;;3.33;2.67;;;;;30.87;68.84;101908.72;6294355;22;45465;-88
2022/07/12 09:10:57;;;;;;;;;4.00;4.00;;;;;30.90;68.39;101905.94;6345203;22;45081;-89
2022/07/12 09:13:52;;;;;;;;;3.00;3.00;;;;;31.05;67.66;101929.16;6319747;22;45313;-90
2022/07/12 09:16:22;;;;;;;;;3.00;3.00;;;;;31.06;67.67;101920.06;6345638;22;45314;-89
2022/07/12 09:18:48;;;;;;;;;5.00;3.67;;;;;31.10;67.46;101920.91;6339968;22;45690;-86
2022/07/12 09:21:27;;;;;;;;;5.00;3.67;;;;;31.13;67.46;101923.53;6336317;22;45367;-91
2022/07/12 09:23:57;;;;;;;;;4.33;2.67;;;;;31.13;67.39;101928.97;6310327;22;45455;-88
2022/07/12 09:26:29;;;;;;;;;4.00;4.00;;;;;31.27;66.97;101949.41;6312680;22;47287;-90
2022/07/12 09:28:54;;;;;;;;;5.00;5.00;;;;;31.26;66.77;101934.09;6345745;22;45123;-88
2022/07/12 09:31:19;;;;;;;;;3.33;3.00;;;;;31.31;66.68;101933.03;6345235;22;45170;-90
2022/07/12 09:36:54;;;;;;;;;6.00;3.67;;;;;31.55;65.77;101967.78;6344472;22;45422;-89
2022/07/12 09:39:22;;;;;;;;;4.00;4.00;;;;;31.62;64.92;101966.69;6312284;22;45253;-91
2022/07/12 09:41:48;;;;;;;;;6.00;6.00;;;;;31.73;65.14;101970.97;6315639;22;45296;-89
2022/07/12 09:44:14;;;;;;;;;4.67;4.67;;;;;31.85;65.18;101975.22;6311199;22;45407;-89
2022/07/12 09:46:42;;;;;;;;;3.67;3.67;;;;;31.97;64.63;101977.59;6312943;22;45582;-88
2022/07/12 09:49:08;;;;;;;;;4.00;4.00;;;;;32.17;64.42;101992.50;6314056;22;45281;-87
2022/07/12 09:51:36;;;;;;;;;4.67;4.67;;;;;32.29;63.18;101985.81;6340307;22;45360;-89
2022/07/12 09:54:04;;;;;;;;;4.33;3.00;;;;;32.39;62.40;101985.59;6312946;22;45319;-88
2022/07/12 09:56:35;;;;;;;;;5.00;4.33;;;;;32.65;62.59;102003.00;6311595;22;47617;-89
2022/07/12 09:59:01;;;;;;;;;3.00;3.00;;;;;32.99;62.38;102002.00;6289428;22;45941;-88
2022/07/12 10:01:30;;;;;;;;;3.33;3.33;;;;;33.53;62.17;102004.00;6319706;22;45540;-89
2022/07/12 10:03:59;;;;;;;;;7.00;5.67;;;;;34.24;61.44;101996.22;6294968;22;44842;-91
2022/07/12 10:06:29;;;;;;;;;20.25;20.25;;;;;35.04;60.53;102006.09;6318136;22;45367;-89
2022/07/12 10:08:56;;;;;;;;;10.33;9.33;;;;;35.76;59.25;102006.84;6315626;22;44631;-89
2022/07/12 10:11:24;;;;;;;;;22.33;19.33;;;;;36.55;59.14;101996.19;6316210;22;45226;-88
2022/07/12 10:13:51;;;;;;;;;15.67;15.67;;;;;37.53;57.55;102017.19;6317746;22;44811;-89
2022/07/12 10:16:26;;;;;;;;;5.67;4.33;;;;;38.42;56.38;102027.34;6314461;22;46400;-91
2022/07/12 10:19:26;;;;;;;;;3.00;3.00;;;;;39.37;55.91;102029.50;6316992;22;45477;-89
2022/07/12 10:21:56;;;;;;;;;47.25;39.00;;;;;40.72;54.09;102018.69;6316025;22;44669;-90
2022/07/12 10:24:31;;;;;;;;;20.00;19.50;;;;;41.97;53.15;102033.53;6345921;22;45016;-90
2022/07/12 10:27:20;;;;;;;;;7.00;6.33;;;;;43.55;49.95;102040.69;6319911;22;46319;-91
2022/07/12 10:29:52;;;;;;;;;3.00;3.00;;;;;44.69;48.33;102038.38;6295868;22;44601;-91
2022/07/12 10:32:33;;;;;;;;;2.00;2.00;;;;;45.30;46.77;102034.25;6346056;22;45382;-89
2022/07/12 10:34:59;;;;;;;;;17.00;17.00;;;;;45.58;45.41;102039.34;6320677;22;45556;-88
2022/07/12 10:37:25;;;;;;;;;11.33;10.33;;;;;46.05;45.48;102043.66;6314994;22;48678;-90
2022/07/12 10:40:13;;;;;;;;;29.25;28.25;;;;;47.22;44.22;102044.50;6318376;22;44801;-92
2022/07/12 11:11:09;;;;;;;;;9.67;7.00;;;;;59.15;29.86;102043.66;6298077;22;46277;-96
2022/07/12 11:13:44;;;;;;;;;3.00;3.00;;;;;59.48;29.06;102024.69;6350627;22;45399;-95
2022/07/12 11:16:42;;;;;;;;;2.67;2.67;;;;;60.15;28.58;102038.38;6351784;22;45308;-94
2022/07/12 11:19:49;;;;;;;;;3.33;3.33;;;;;60.95;27.41;102026.13;6281969;22;46217;-94
2022/07/12 11:22:47;;;;;;;;;3.00;3.00;;;;;61.74;27.04;102034.59;6273751;22;45469;-94
2022/07/12 11:25:14;;;;;;;;;1.33;1.33;;;;;62.30;26.25;102018.22;6189853;22;44846;-93
2022/07/12 11:27:40;;;;;;;;;3.33;3.33;;;;;62.76;25.46;102040.13;6282382;22;45573;-93
2022/07/12 11:30:06;;;;;;;;;3.00;3.00;;;;;62.28;24.89;102031.78;6285611;22;45462;-93
2022/07/12 11:32:39;;;;;;;;;2.00;1.00;;;;;60.57;24.72;102025.41;6282474;22;45498;-93
2022/07/12 11:35:25;;;;;;;;;3.00;3.00;;;;;58.87;25.53;102032.78;6263149;22;45691;-94
2022/07/12 11:37:59;;;;;;;;;3.00;3.00;;;;;58.54;25.73;102015.75;6262473;22;45384;-95
2022/07/12 11:40:29;;;;;;;;;2.00;2.00;;;;;59.26;26.15;102021.38;6263650;22;45345;-94
2022/07/12 11:43:00;;;;;;;;;3.00;3.00;;;;;60.16;25.08;102008.91;6259425;22;45414;-92
2022/07/12 11:45:27;;;;;;;;;2.33;2.33;;;;;61.15;24.73;102027.78;6258113;22;45346;-92
2022/07/12 11:47:56;;;;;;;;;3.67;2.33;;;;;61.77;24.88;102002.88;6283425;22;45434;-92
2022/07/12 11:50:23;;;;;;;;;2.00;2.00;;;;;62.57;23.60;102028.97;6325480;22;48052;-92
2022/07/12 11:52:48;;;;;;;;;3.67;2.33;;;;;63.06;23.72;102004.81;6318461;22;45350;-93
2022/07/12 11:55:14;;;;;;;;;5.00;3.33;;;;;63.74;23.67;102027.75;6345918;22;45252;-96
2022/07/12 11:57:40;;;;;;;;;2.00;2.00;;;;;64.27;22.49;102012.19;6344246;22;45446;-92
2022/07/12 12:00:27;;;;;;;;;3.00;3.00;;;;;64.91;22.16;102025.91;6344400;22;46881;-93
2022/07/12 12:02:53;;;;;;;;;1.00;1.00;;;;;65.37;21.98;102016.88;6349261;22;45381;-93
2022/07/12 12:05:22;;;;;;;;;4.67;3.67;;;;;65.90;22.18;102020.88;6347665;22;45483;-93
2022/07/12 12:07:48;;;;;;;;;3.33;3.00;;;;;66.27;21.82;102001.81;6346263;22;45287;-93
2022/07/12 12:10:16;;;;;;;;;2.75;2.75;;;;;66.79;21.75;102015.31;6351455;22;48036;-93
2022/07/12 12:12:49;;;;;;;;;3.75;3.75;;;;;67.09;20.43;102010.72;6349631;22;45803;-93
2022/07/12 12:15:23;;;;;;;;;3.25;3.25;;;;;67.22;20.32;101985.53;6348358;22;45311;-93
2022/07/12 12:17:58;;;;;;;;;2.75;2.75;;;;;67.56;20.16;101998.31;6349181;22;45366;-94
2022/07/12 12:20:38;;;;;;;;;2.75;2.75;;;;;67.81;20.35;101987.88;6346954;22;46216;-94
2022/07/12 12:23:23;;;;;;;;;1.75;1.75;;;;;68.18;19.97;102002.84;6343986;22;45454;-94
2022/07/12 12:25:49;;;;;;;;;3.00;3.00;;;;;68.24;20.38;101988.47;6348501;22;45393;-94
2022/07/12 12:28:14;;;;;;;;;2.75;2.75;;;;;68.39;20.12;101984.66;6347905;22;45395;-94
2022/07/12 12:30:54;;;;;;;;;3.00;3.00;;;;;68.67;19.79;102004.25;6350874;22;46961;-92
2022/07/12 12:33:46;;;;;;;;;2.75;2.75;;;;;68.80;20.35;101979.69;6352877;22;45229;-93
2022/07/12 12:36:15;;;;;;;;;3.00;2.00;;;;;69.21;19.75;101991.94;6321732;22;45362;-92
2022/07/12 12:38:44;;;;;;;;;3.00;3.00;;;;;69.55;19.13;101978.56;6352041;22;45180;-91
2022/07/12 12:41:10;;;;;;;;;3.00;3.00;;;;;69.90;19.00;101975.53;6323153;22;46698;-92
2022/07/12 12:43:39;;;;;;;;;3.50;2.00;;;;;70.13;18.29;101952.75;6354009;22;45717;-92
2022/07/12 12:46:04;;;;;;;;;1.25;1.25;;;;;70.43;17.74;101985.03;6353698;22;45324;-90
2022/07/12 12:48:32;;;;;;;;;1.50;1.50;;;;;70.49;18.67;101966.53;6355153;22;45217;-92
2022/07/12 12:51:10;;;;;;;;;2.25;2.25;;;;;70.79;17.60;101971.16;6351423;22;48532;-92
2022/07/12 12:53:39;;;;;;;;;2.00;2.00;;;;;70.72;18.08;101960.06;6353235;22;45248;-90
2022/07/12 12:56:14;;;;;;;;;3.75;2.00;;;;;70.50;17.98;101970.25;6350103;22;45182;-91
2022/07/12 12:58:43;;;;;;;;;2.50;1.75;;;;;70.55;18.24;101969.31;6349142;22;44760;-92
2022/07/12 13:01:09;;;;;;;;;3.00;3.00;;;;;70.88;17.98;101977.06;6346733;22;46943;-92
2022/07/12 13:03:38;;;;;;;;;3.00;3.00;;;;;71.17;17.92;101961.47;6347614;22;44787;-92
2022/07/12 13:06:04;;;;;;;;;3.00;3.00;;;;;71.54;17.75;101960.72;6348027;22;45240;-91
2022/07/12 13:08:34;;;;;;;;;2.50;2.50;;;;;71.70;17.49;101952.56;6348123;22;45304;-90
2022/07/12 13:11:18;;;;;;;;;3.25;2.00;;;;;71.71;17.90;101954.28;6346674;22;46190;-93
2022/07/12 13:13:43;;;;;;;;;2.00;2.00;;;;;71.94;17.79;101954.31;6350315;22;45450;-91
2022/07/12 13:16:09;;;;;;;;;1.50;1.50;;;;;72.07;17.54;101945.94;6352992;22;45438;-92
2022/07/12 13:18:37;;;;;;;;;2.00;2.00;;;;;72.36;17.97;101950.38;6353547;22;44767;-92
2022/07/12 13:21:03;;;;;;;;;2.00;2.00;;;;;72.57;17.37;101942.03;6344830;22;47863;-91
2022/07/12 13:23:28;;;;;;;;;3.00;1.50;;;;;72.94;17.06;101964.06;6348774;22;45336;-93
2022/07/12 13:25:54;;;;;;;;;3.00;3.00;;;;;72.96;17.13;101940.63;6348893;22;45266;-91
2022/07/12 13:28:19;;;;;;;;;3.50;2.50;;;;;72.78;17.11;101941.41;6350320;22;45195;-90
2022/07/12 13:30:45;;;;;;;;;3.75;3.75;;;;;72.74;16.85;101940.38;6347928;22;48342;-92
2022/07/12 13:33:11;;;;;;;;;1.75;1.75;;;;;72.78;16.94;101931.91;6348006;22;44805;-92
2022/07/12 13:35:36;;;;;;;;;2.50;2.00;;;;;72.83;16.13;101940.44;6318756;22;45404;-92
2022/07/12 13:38:02;;;;;;;;;3.25;3.00;;;;;72.72;16.75;101931.22;6345744;22;45365;-91
2022/07/12 13:40:27;;;;;;;;;2.50;2.50;;;;;72.66;16.51;101927.66;6346905;22;45360;-93
2022/07/12 13:42:53;;;;;;;;;3.00;3.00;;;;;72.66;16.20;101938.34;6344366;22;45448;-93
2022/07/12 13:45:23;;;;;;;;;3.00;3.00;;;;;72.72;16.39;101940.72;6347480;22;45310;-92
2022/07/12 13:47:50;;;;;;;;;3.00;3.00;;;;;72.66;16.05;101929.69;6345200;22;45310;-93
2022/07/12 13:50:18;;;;;;;;;3.00;3.00;;;;;72.64;16.28;101926.28;6342220;22;47377;-92
2022/07/12 13:52:48;;;;;;;;;3.00;3.00;;;;;72.68;15.97;101933.94;6349940;22;45229;-91
2022/07/12 13:55:31;;;;;;;;;2.25;2.25;;;;;72.78;15.90;101947.19;6346307;22;45308;-92
2022/07/12 13:58:00;;;;;;;;;2.75;2.75;;;;;72.81;16.06;101939.94;6343742;22;45303;-91
2022/07/12 14:00:28;;;;;;;;;2.50;2.50;;;;;72.86;15.93;101922.47;6295168;22;46142;-94
2022/07/12 14:02:53;;;;;;;;;2.00;2.00;;;;;72.95;15.98;101916.69;6344073;22;45441;-93
2022/07/12 14:05:20;;;;;;;;;3.00;3.00;;;;;73.12;16.15;101926.63;6333515;22;45655;-93
2022/07/12 14:07:47;;;;;;;;;2.75;2.75;;;;;73.14;16.13;101927.97;6339438;22;45433;-94
2022/07/12 14:10:14;;;;;;;;;5.25;2.75;;;;;73.20;15.76;101928.66;6368856;22;47111;-93
2022/07/12 14:12:40;;;;;;;;;1.75;1.75;;;;;73.38;16.08;101935.34;6313225;22;45272;-92
2022/07/12 14:15:14;;;;;;;;;2.25;2.25;;;;;73.49;15.74;101926.31;6347820;22;44965;-92
2022/07/12 14:17:54;;;;;;;;;2.25;2.25;;;;;73.51;16.45;101926.84;6348647;22;45293;-94
2022/07/12 14:20:23;;;;;;;;;2.00;2.00;;;;;73.33;15.75;101921.06;6351077;22;45446;-94
2022/07/12 14:22:57;;;;;;;;;2.25;2.25;;;;;73.27;16.02;101917.47;6349715;22;45030;-94
2022/07/12 14:25:23;;;;;;;;;4.00;4.00;;;;;73.33;15.12;101923.97;6349072;22;44861;-93
2022/07/12 14:27:50;;;;;;;;;2.50;2.50;;;;;73.29;15.29;101920.00;6346974;22;45245;-92
2022/07/12 14:30:15;;;;;;;;;3.00;2.00;;;;;73.19;15.57;101915.41;6350307;22;47082;-92
2022/07/12 14:32:43;;;;;;;;;3.75;3.75;;;;;73.20;15.37;101916.28;6351930;22;44755;-92
2022/07/12 14:35:09;;;;;;;;;4.00;4.00;;;;;73.19;15.76;101929.84;6323035;22;45701;-93
2022/07/12 14:37:36;;;;;;;;;3.00;3.00;;;;;73.05;15.65;101907.75;6346427;22;45258;-92
2022/07/12 14:40:05;;;;;;;;;2.75;2.75;;;;;72.97;15.80;101899.06;6350169;22;45214;-92
2022/07/12 14:42:34;;;;;;;;;3.75;3.75;;;;;72.76;14.45;101899.66;6352323;22;45791;-91
2022/07/12 14:45:02;;;;;;;;;3.00;3.00;;;;;72.28;15.45;101900.97;6354933;22;45293;-93
2022/07/12 14:47:27;;;;;;;;;2.75;2.75;;;;;71.84;15.64;101889.13;6322360;22;45237;-91
2022/07/12 14:49:56;;;;;;;;;3.75;3.75;;;;;71.34;15.32;101900.41;6351312;22;46898;-91
2022/07/12 14:52:21;;;;;;;;;3.50;3.50;;;;;69.65;16.46;101891.44;6355206;22;45324;-92
2022/07/12 14:54:48;;;;;;;;;1.00;1.00;;;;;66.94;16.29;101879.16;6351581;22;45414;-91
2022/07/12 14:57:13;;;;;;;;;1.50;1.50;;;;;64.08;17.75;101881.47;6319156;22;45478;-90
2022/07/12 14:59:38;;;;;;;;;1.00;1.00;;;;;61.34;18.12;101861.13;6343209;22;47294;-93
2022/07/12 15:02:04;;;;;;;;;2.00;2.00;;;;;59.01;19.20;101863.84;6347795;22;45386;-93
2022/07/12 15:04:32;;;;;;;;;3.00;3.00;;;;;56.96;19.81;101860.28;6348731;22;45342;-94
2022/07/12 15:06:57;;;;;;;;;1.75;1.75;;;;;55.05;20.57;101859.50;6345863;22;45627;-93
2022/07/12 15:09:23;;;;;;;;;2.00;2.00;;;;;53.45;21.66;101854.38;6348339;22;45394;-93
2022/07/12 15:11:48;;;;;;;;;3.00;2.00;;;;;51.94;21.96;101853.53;6369578;22;45722;-93
2022/07/12 15:14:13;;;;;;;;;3.00;2.00;;;;;50.61;21.69;101841.47;6344789;22;45399;-92
2022/07/12 15:16:39;;;;;;;;;4.00;2.50;;;;;49.40;23.08;101839.53;6345190;22;45557;-93
2022/07/12 15:19:07;;;;;;;;;1.75;1.75;;;;;48.31;23.86;101838.50;6346514;22;46891;-94
2022/07/12 15:21:32;;;;;;;;;2.00;2.00;;;;;47.37;24.00;101837.41;6326326;22;45363;-92
2022/07/12 15:23:59;;;;;;;;;2.33;2.33;;;;;46.58;24.01;101842.94;6351825;22;45277;-91
2022/07/12 15:26:24;;;;;;;;;2.00;2.00;;;;;45.76;24.32;101830.84;6348444;22;45475;-92
2022/07/12 15:28:57;;;;;;;;;2.00;2.00;;;;;45.13;25.12;101843.72;6346079;22;47032;-92
2022/07/12 15:31:23;;;;;;;;;1.00;1.00;;;;;44.45;25.73;101835.47;6348436;22;45288;-92
2022/07/12 15:33:50;;;;;;;;;2.00;2.00;;;;;43.81;26.22;101824.09;6340773;22;45374;-92
2022/07/12 15:36:18;;;;;;;;;7.00;6.00;;;;;43.29;27.07;101811.53;6345718;22;44857;-92
2022/07/12 15:38:44;;;;;;;;;6.00;4.00;;;;;42.92;26.89;101829.97;6348224;22;46198;-92
2022/07/12 15:41:12;;;;;;;;;2.67;2.67;;;;;42.55;27.10;101829.00;6351230;22;45298;-92
2022/07/12 15:43:43;;;;;;;;;5.00;3.00;;;;;42.06;27.63;101814.25;6347933;22;45373;-93
2022/07/12 15:46:10;;;;;;;;;2.00;2.00;;;;;41.66;27.53;101806.00;6346440;22;45151;-95
2022/07/12 15:48:40;;;;;;;;;3.00;3.00;;;;;41.33;28.61;101807.38;6346215;22;45339;-94
2022/07/12 16:01:52;;;;;;;;;2.00;1.33;;;;;39.88;29.63;101808.56;6328724;22;46014;-90
2022/07/12 16:17:29;;;;;;;;;3.00;2.00;;;;;38.74;30.69;101815.34;6361586;22;46314;-94
2022/07/12 16:20:06;;;;;;;;;4.00;4.00;;;;;38.60;31.04;101813.41;6316166;22;48491;31
2022/07/12 16:22:33;;;;;;;;;3.00;3.00;;;;;38.26;31.72;101781.47;6293166;22;44727;-94
2022/07/12 16:24:58;;;;;;;;;14.00;14.00;;;;;38.23;31.48;101800.81;6293811;22;45354;-94
2022/07/12 16:27:28;;;;;;;;;2.33;2.33;;;;;38.10;31.15;101811.59;6321450;22;45306;-93
2022/07/12 16:29:56;;;;;;;;;3.00;3.00;;;;;37.93;31.13;101799.72;6296399;22;47157;-96
2022/07/12 16:32:28;;;;;;;;;3.00;2.67;;;;;37.84;32.17;101805.66;6322468;22;45099;-95
2022/07/12 16:34:53;;;;;;;;;2.00;2.00;;;;;37.69;31.23;101804.66;6290630;22;45408;-94
2022/07/12 16:37:24;;;;;;;;;2.00;2.00;;;;;37.53;31.09;101800.00;6319248;22;45268;-94
2022/07/12 16:39:53;;;;;;;;;3.00;3.00;;;;;37.35;31.17;101799.97;6290646;22;46134;-91
2022/07/12 16:42:20;;;;;;;;;2.00;2.00;;;;;37.31;31.90;101802.00;6290693;22;45302;-92
2022/07/12 16:44:45;;;;;;;;;1.00;1.00;;;;;37.20;31.48;101812.63;6291739;22;45022;-93
2022/07/12 16:47:12;;;;;;;;;1.00;1.00;;;;;37.03;32.20;101806.19;6321661;22;45246;-93
2022/07/12 16:49:41;;;;;;;;;3.00;2.33;;;;;36.86;31.17;101787.84;6322995;22;46273;-93
2022/07/12 16:52:06;;;;;;;;;2.00;2.00;;;;;36.82;31.17;101802.66;6294322;22;45723;-91
2022/07/12 16:54:36;;;;;;;;;1.67;1.67;;;;;36.66;31.78;101790.63;6326154;22;45258;-91
2022/07/12 16:57:01;;;;;;;;;3.00;3.00;;;;;36.59;31.87;101797.38;6290113;22;45298;-87
2022/07/12 16:59:30;;;;;;;;;2.00;2.00;;;;;36.38;32.15;101775.56;6315625;22;45257;-96
2022/07/12 17:01:56;;;;;;;;;2.00;2.00;;;;;36.38;32.41;101799.28;6288776;22;45381;-87
2022/07/12 17:04:21;;;;;;;;;2.33;2.33;;;;;36.25;31.99;101799.88;6310338;22;45295;-89
2022/07/12 17:06:49;;;;;;;;;2.33;2.33;;;;;36.10;32.76;101790.56;6312421;22;45307;-90
2022/07/12 17:09:14;;;;;;;;;3.33;1.00;;;;;36.00;33.25;101801.03;6285131;22;45625;-89
2022/07/12 17:11:41;;;;;;;;;1.00;1.00;;;;;35.89;33.00;101798.81;6310554;22;45281;-88
2022/07/12 17:14:06;;;;;;;;;3.00;3.00;;;;;35.84;32.61;101800.81;6285720;22;45497;-88
2022/07/12 17:16:32;;;;;;;;;1.67;1.67;;;;;35.73;33.40;101804.03;6312045;22;45566;-89
2022/07/12 17:19:03;;;;;;;;;5.00;3.67;;;;;35.59;32.79;101791.03;6314761;22;46225;-88
2022/07/12 17:21:31;;;;;;;;;6.00;4.67;;;;;35.52;32.95;101791.28;6288337;22;44793;-89
2022/07/12 17:23:57;;;;;;;;;2.00;2.00;;;;;35.41;33.28;101780.00;6316968;22;45295;-89
2022/07/12 17:26:24;;;;;;;;;3.00;2.00;;;;;35.33;32.71;101794.81;6313716;22;45374;-88
2022/07/12 17:28:50;;;;;;;;;1.67;1.67;;;;;35.36;32.99;101810.16;6310361;22;46212;-90
2022/07/12 17:31:16;;;;;;;;;1.00;1.00;;;;;35.25;33.35;101791.53;6288349;22;45572;-88
2022/07/12 17:33:47;;;;;;;;;1.00;1.00;;;;;35.09;33.24;101778.56;6312079;22;45289;-91
2022/07/12 17:36:13;;;;;;;;;1.33;1.33;;;;;35.06;33.70;101799.63;6285928;22;45201;-90
2022/07/12 17:38:39;;;;;;;;;2.00;2.00;;;;;35.00;33.78;101804.38;6260393;22;47120;-88
2022/07/12 17:41:04;;;;;;;;;3.00;2.00;;;;;34.89;33.13;101795.78;6310141;22;45374;-89
2022/07/12 17:43:30;;;;;;;;;1.00;1.00;;;;;34.82;33.21;101791.50;6311012;22;45266;-87
2022/07/12 17:45:55;;;;;;;;;1.00;1.00;;;;;34.78;34.23;101796.19;6314317;22;45362;-90
2022/07/12 17:48:21;;;;;;;;;1.67;1.67;;;;;34.72;33.71;101790.97;6315968;22;46427;-89
2022/07/12 17:50:46;;;;;;;;;3.00;2.33;;;;;34.73;33.66;101809.13;6316677;22;45336;-90
2022/07/12 17:53:13;;;;;;;;;4.00;3.00;;;;;34.66;33.96;101806.63;6264135;22;45269;-89
2022/07/12 17:55:38;;;;;;;;;3.33;3.33;;;;;34.58;34.49;101806.09;6313290;22;45377;-89
2022/07/12 18:00:48;;;;;;;;;2.00;2.00;;;;;34.33;34.61;101790.69;6315145;22;45338;-90
2022/07/12 18:03:15;;;;;;;;;2.00;2.00;;;;;34.24;34.68;101786.47;6315267;22;45260;-90
2022/07/12 18:05:51;;;;;;;;;1.00;1.00;;;;;34.19;34.08;101788.50;6317437;22;45379;-89
2022/07/12 18:08:18;;;;;;;;;2.33;2.33;;;;;34.09;33.88;101782.53;6281432;22;45255;-88
2022/07/12 18:10:44;;;;;;;;;4.00;3.00;;;;;34.12;34.32;101796.88;6244848;22;45275;-89
2022/07/12 18:15:56;;;;;;;;;2.00;1.00;;;;;34.00;33.99;101792.81;6282584;22;44726;-89
2022/07/12 18:18:22;;;;;;;;;2.00;2.00;;;;;33.94;34.28;101786.72;6294296;22;46107;-90
2022/07/12 18:20:52;;;;;;;;;2.00;2.00;;;;;34.01;34.20;101793.72;6294527;22;44802;-90
2022/07/12 18:23:18;;;;;;;;;1.67;0.67;;;;;33.97;34.09;101798.38;6246486;22;45284;-89
2022/07/12 18:25:44;;;;;;;;;2.00;2.00;;;;;33.91;34.71;101790.44;6296548;22;45166;-89
2022/07/12 18:28:11;;;;;;;;;1.00;1.00;;;;;33.94;35.32;101809.38;6259851;22;46587;-87
2022/07/12 18:30:36;;;;;;;;;3.00;3.00;;;;;33.87;35.09;101806.00;6289694;22;45304;-89
2022/07/12 18:33:02;;;;;;;;;4.00;4.00;;;;;33.85;35.73;101816.06;6295147;22;44755;-91
2022/07/12 18:35:28;;;;;;;;;4.67;3.33;;;;;33.70;36.01;101797.53;6271684;22;44868;-90
2022/07/12 18:37:54;;;;;;;;;4.00;4.00;;;;;33.58;35.94;101810.63;6296840;22;46995;-92
2022/07/12 18:40:22;;;;;;;;;3.00;3.00;;;;;33.58;34.90;101797.03;6269482;22;44672;-89
2022/07/12 18:42:48;;;;;;;;;2.33;2.33;;;;;33.58;36.05;101798.88;6293514;22;45272;-91
2022/07/12 18:45:18;;;;;;;;;2.00;2.00;;;;;33.50;35.87;101799.16;6292715;22;45249;-92
2022/07/12 18:47:43;;;;;;;;;2.00;2.00;;;;;33.56;35.49;101809.81;6293912;22;45590;-94